Aérodrome :
LOGIN :

S'inscrire | Disclaimer

   EN    FR    IT 

 










Légende :    VFR   VFR Marginal   IFR   IFR Intensif   IFR Très Intensif
Visi : 
Plafond : 
>= 8 km
>= 3000ft
5 à 8 km
1000 à 3000 ft
1500m à 5 km
500 à 1000 ft
800 à 1500m
200 à 500 ft
< 800m
< 200 ft
Symboles :   Orages  Brouillard  Fortes neiges  Fortes précipitations  Vent > 20 kt
SIGMETs :   Divers  Orages  Givrage  Turbulence  Onde Orograph.  Cendres Volcan.






- Altitude de l'aérodrome : 194 ft


EBCV - Chièvres

DERNIER METAR :
  • 080325Z AUTO 21016KT 9999 SCT240/// 05/03 Q0993 BLU

METARs EXPIRÉS :
  • 080255Z AUTO 21012KT 9999 BKN240/// 05/03 Q0993 BLU
  • 080225Z AUTO 21015KT 9999 BKN240/// 05/03 Q0993 BLU
  • 080217Z AUTO 22015KT 9999 FEW035/// BKN240/// 05/03 Q0993 BLU
  • 080155Z AUTO 22015KT 9999 BKN021/// BKN230/// 06/03 Q0993 WHT
  • 080125Z AUTO 22014KT 9999 BKN021/// 06/04 Q0993 WHT
  • 080112Z AUTO 21013KT 9999 BKN023/// 06/04 Q0993 WHT
  • 080055Z AUTO 23016KT 9999 BKN028/// BKN210/// 06/04 Q0993 BLU

TAF TAF EBCV
Valide du 07 à 19h jusqu'au 08 à 07h UTC


071541Z 0719/0807 16012G22KT 7000 -RA BKN015 BKN050
TEMPO 0717/0724 18018G30KT 4000 RA RADZ BKN012 BKN020
BECMG 0723/0801 20010KT 9999 FEW025 BY EBWM



MET'MAP, la Météo Aéronautique d'un coup d'oeil ! - Copyright ORBIFLY Décembre 2007 - Disclaimer

ORBIFLY MET'MAP TEAM :

Programmation & Développement : Alexandra Zaïnal
Sur une idée originale de : Baudouin d'Aumeries
Assistance à la programmation : Marc-Olivier Méhu
Soutien technique & logistique : Manuel Goepfert

Contact : metmap@orbifly.com




SOURCES & CREDITS :

   NOAA